sensor_id;sensor_type;location;lat;lon;timestamp;temperature;humidity
2783;DHT22;1399;47.072;15.452;2023-07-29T00:00:43;21.40;86.50
2783;DHT22;1399;47.072;15.452;2023-07-29T00:03:09;21.40;86.70
2783;DHT22;1399;47.072;15.452;2023-07-29T00:05:38;21.40;86.80
2783;DHT22;1399;47.072;15.452;2023-07-29T00:08:05;21.40;86.90
2783;DHT22;1399;47.072;15.452;2023-07-29T00:10:38;21.40;87.00
2783;DHT22;1399;47.072;15.452;2023-07-29T00:13:05;21.40;87.10
2783;DHT22;1399;47.072;15.452;2023-07-29T00:15:31;21.40;87.20
2783;DHT22;1399;47.072;15.452;2023-07-29T00:17:56;21.30;87.20
2783;DHT22;1399;47.072;15.452;2023-07-29T00:20:22;21.30;87.30
2783;DHT22;1399;47.072;15.452;2023-07-29T00:22:48;21.30;87.30
2783;DHT22;1399;47.072;15.452;2023-07-29T00:25:16;21.30;87.40
2783;DHT22;1399;47.072;15.452;2023-07-29T00:27:42;21.30;87.40
2783;DHT22;1399;47.072;15.452;2023-07-29T00:30:08;21.30;87.40
2783;DHT22;1399;47.072;15.452;2023-07-29T00:32:35;21.30;87.40
2783;DHT22;1399;47.072;15.452;2023-07-29T00:35:02;21.30;87.90
2783;DHT22;1399;47.072;15.452;2023-07-29T00:37:29;21.30;87.40
2783;DHT22;1399;47.072;15.452;2023-07-29T00:39:56;21.30;87.40
2783;DHT22;1399;47.072;15.452;2023-07-29T00:42:21;21.20;87.20
2783;DHT22;1399;47.072;15.452;2023-07-29T00:44:47;21.20;87.10
2783;DHT22;1399;47.072;15.452;2023-07-29T00:47:15;21.20;87.10
2783;DHT22;1399;47.072;15.452;2023-07-29T00:49:45;21.20;87.10
2783;DHT22;1399;47.072;15.452;2023-07-29T00:52:11;21.20;87.10
2783;DHT22;1399;47.072;15.452;2023-07-29T00:54:39;21.20;87.00
2783;DHT22;1399;47.072;15.452;2023-07-29T00:57:08;21.20;87.00
2783;DHT22;1399;47.072;15.452;2023-07-29T00:59:35;21.20;87.00
2783;DHT22;1399;47.072;15.452;2023-07-29T01:02:02;21.20;86.90
2783;DHT22;1399;47.072;15.452;2023-07-29T01:04:28;21.20;86.90
2783;DHT22;1399;47.072;15.452;2023-07-29T01:07:14;21.10;86.80
2783;DHT22;1399;47.072;15.452;2023-07-29T01:09:56;21.10;86.80
2783;DHT22;1399;47.072;15.452;2023-07-29T01:12:56;21.10;86.80
2783;DHT22;1399;47.072;15.452;2023-07-29T01:15:42;21.10;86.90
2783;DHT22;1399;47.072;15.452;2023-07-29T01:18:22;21.10;86.90
2783;DHT22;1399;47.072;15.452;2023-07-29T01:20:51;21.00;86.90
2783;DHT22;1399;47.072;15.452;2023-07-29T01:23:28;21.00;87.10
2783;DHT22;1399;47.072;15.452;2023-07-29T01:25:54;21.00;87.20
2783;DHT22;1399;47.072;15.452;2023-07-29T01:28:20;21.00;87.40
2783;DHT22;1399;47.072;15.452;2023-07-29T01:30:49;21.00;87.50
2783;DHT22;1399;47.072;15.452;2023-07-29T01:33:22;20.90;88.60
2783;DHT22;1399;47.072;15.452;2023-07-29T01:35:52;21.00;87.90
2783;DHT22;1399;47.072;15.452;2023-07-29T01:38:24;20.90;87.90
2783;DHT22;1399;47.072;15.452;2023-07-29T01:40:54;20.90;88.10
2783;DHT22;1399;47.072;15.452;2023-07-29T01:43:21;20.90;88.20
2783;DHT22;1399;47.072;15.452;2023-07-29T01:45:49;20.90;88.30
2783;DHT22;1399;47.072;15.452;2023-07-29T01:48:15;20.90;88.60
2783;DHT22;1399;47.072;15.452;2023-07-29T01:50:40;20.80;88.60
2783;DHT22;1399;47.072;15.452;2023-07-29T01:53:06;20.80;88.80
2783;DHT22;1399;47.072;15.452;2023-07-29T01:55:32;20.80;88.90
2783;DHT22;1399;47.072;15.452;2023-07-29T01:57:57;20.80;89.10
2783;DHT22;1399;47.072;15.452;2023-07-29T02:00:24;20.80;89.30
2783;DHT22;1399;47.072;15.452;2023-07-29T02:02:49;20.70;89.20
2783;DHT22;1399;47.072;15.452;2023-07-29T02:05:15;20.70;89.40
2783;DHT22;1399;47.072;15.452;2023-07-29T02:07:41;20.70;89.50
2783;DHT22;1399;47.072;15.452;2023-07-29T02:10:07;20.70;89.70
2783;DHT22;1399;47.072;15.452;2023-07-29T02:12:33;20.70;89.70
2783;DHT22;1399;47.072;15.452;2023-07-29T02:14:59;20.60;89.70
2783;DHT22;1399;47.072;15.452;2023-07-29T02:17:24;20.60;89.80
2783;DHT22;1399;47.072;15.452;2023-07-29T02:19:52;20.60;89.90
2783;DHT22;1399;47.072;15.452;2023-07-29T02:22:18;20.60;90.00
2783;DHT22;1399;47.072;15.452;2023-07-29T02:24:44;20.60;90.10
2783;DHT22;1399;47.072;15.452;2023-07-29T02:27:11;20.60;90.10
2783;DHT22;1399;47.072;15.452;2023-07-29T02:29:37;20.50;90.10
2783;DHT22;1399;47.072;15.452;2023-07-29T02:32:03;20.50;90.10
2783;DHT22;1399;47.072;15.452;2023-07-29T02:34:29;20.50;90.10
2783;DHT22;1399;47.072;15.452;2023-07-29T02:36:55;20.50;90.20
2783;DHT22;1399;47.072;15.452;2023-07-29T02:39:21;20.50;90.20
2783;DHT22;1399;47.072;15.452;2023-07-29T02:41:47;20.50;90.20
2783;DHT22;1399;47.072;15.452;2023-07-29T02:44:13;20.50;90.20
2783;DHT22;1399;47.072;15.452;2023-07-29T02:46:38;20.50;90.20
2783;DHT22;1399;47.072;15.452;2023-07-29T02:49:04;20.40;90.10
2783;DHT22;1399;47.072;15.452;2023-07-29T02:51:30;20.40;90.10
2783;DHT22;1399;47.072;15.452;2023-07-29T02:53:56;20.40;90.10
2783;DHT22;1399;47.072;15.452;2023-07-29T02:56:22;20.40;90.00
2783;DHT22;1399;47.072;15.452;2023-07-29T02:58:48;20.50;90.10
2783;DHT22;1399;47.072;15.452;2023-07-29T03:01:13;20.40;90.00
2783;DHT22;1399;47.072;15.452;2023-07-29T03:03:40;20.40;89.90
2783;DHT22;1399;47.072;15.452;2023-07-29T03:06:08;20.40;89.80
2783;DHT22;1399;47.072;15.452;2023-07-29T03:08:34;20.40;89.70
2783;DHT22;1399;47.072;15.452;2023-07-29T03:11:12;20.40;89.60
2783;DHT22;1399;47.072;15.452;2023-07-29T03:13:38;20.40;89.50
2783;DHT22;1399;47.072;15.452;2023-07-29T03:16:11;20.40;89.40
2783;DHT22;1399;47.072;15.452;2023-07-29T03:18:38;20.40;89.30
2783;DHT22;1399;47.072;15.452;2023-07-29T03:21:04;20.40;89.20
2783;DHT22;1399;47.072;15.452;2023-07-29T03:23:31;20.40;89.10
2783;DHT22;1399;47.072;15.452;2023-07-29T03:25:57;20.40;89.00
2783;DHT22;1399;47.072;15.452;2023-07-29T03:28:25;20.40;88.90
2783;DHT22;1399;47.072;15.452;2023-07-29T03:30:54;20.40;88.80
2783;DHT22;1399;47.072;15.452;2023-07-29T03:33:19;20.40;88.70
2783;DHT22;1399;47.072;15.452;2023-07-29T03:35:45;20.40;88.60
2783;DHT22;1399;47.072;15.452;2023-07-29T03:38:11;20.40;88.40
2783;DHT22;1399;47.072;15.452;2023-07-29T03:40:40;20.40;88.40
2783;DHT22;1399;47.072;15.452;2023-07-29T03:43:07;20.40;88.30
2783;DHT22;1399;47.072;15.452;2023-07-29T03:45:33;20.40;88.20
2783;DHT22;1399;47.072;15.452;2023-07-29T03:47:59;20.40;88.10
2783;DHT22;1399;47.072;15.452;2023-07-29T03:50:26;20.40;88.10
2783;DHT22;1399;47.072;15.452;2023-07-29T03:52:52;20.40;88.00
2783;DHT22;1399;47.072;15.452;2023-07-29T03:55:18;20.40;87.90
2783;DHT22;1399;47.072;15.452;2023-07-29T03:57:44;20.40;87.80
2783;DHT22;1399;47.072;15.452;2023-07-29T04:00:10;20.40;87.70
2783;DHT22;1399;47.072;15.452;2023-07-29T04:02:36;20.40;87.60
2783;DHT22;1399;47.072;15.452;2023-07-29T04:05:05;20.40;87.50
2783;DHT22;1399;47.072;15.452;2023-07-29T04:07:35;20.40;87.50
2783;DHT22;1399;47.072;15.452;2023-07-29T04:10:01;20.40;87.40
2783;DHT22;1399;47.072;15.452;2023-07-29T04:12:27;20.40;87.40
2783;DHT22;1399;47.072;15.452;2023-07-29T04:14:53;20.40;87.40
2783;DHT22;1399;47.072;15.452;2023-07-29T04:17:19;20.40;87.40
2783;DHT22;1399;47.072;15.452;2023-07-29T04:19:45;20.40;87.30
2783;DHT22;1399;47.072;15.452;2023-07-29T04:22:10;20.40;87.20
2783;DHT22;1399;47.072;15.452;2023-07-29T04:24:37;20.40;87.10
2783;DHT22;1399;47.072;15.452;2023-07-29T04:27:03;20.40;87.00
2783;DHT22;1399;47.072;15.452;2023-07-29T04:29:29;20.40;87.00
2783;DHT22;1399;47.072;15.452;2023-07-29T04:31:55;20.40;86.90
2783;DHT22;1399;47.072;15.452;2023-07-29T04:34:21;20.50;86.90
2783;DHT22;1399;47.072;15.452;2023-07-29T04:36:47;20.50;86.80
2783;DHT22;1399;47.072;15.452;2023-07-29T04:39:13;20.50;86.70
2783;DHT22;1399;47.072;15.452;2023-07-29T04:41:39;20.40;86.60
2783;DHT22;1399;47.072;15.452;2023-07-29T04:44:05;20.50;86.70
2783;DHT22;1399;47.072;15.452;2023-07-29T04:46:31;20.50;86.60
2783;DHT22;1399;47.072;15.452;2023-07-29T04:48:57;20.50;86.60
2783;DHT22;1399;47.072;15.452;2023-07-29T04:51:23;20.50;86.60
2783;DHT22;1399;47.072;15.452;2023-07-29T04:53:50;20.50;86.60
2783;DHT22;1399;47.072;15.452;2023-07-29T04:56:16;20.50;86.40
2783;DHT22;1399;47.072;15.452;2023-07-29T04:58:42;20.60;86.40
2783;DHT22;1399;47.072;15.452;2023-07-29T05:01:08;20.60;86.40
2783;DHT22;1399;47.072;15.452;2023-07-29T05:03:34;20.60;86.20
2783;DHT22;1399;47.072;15.452;2023-07-29T05:06:00;20.70;86.10
2783;DHT22;1399;47.072;15.452;2023-07-29T05:08:26;20.80;85.90
2783;DHT22;1399;47.072;15.452;2023-07-29T05:10:53;20.80;85.80
2783;DHT22;1399;47.072;15.452;2023-07-29T05:13:20;20.80;85.50
2783;DHT22;1399;47.072;15.452;2023-07-29T05:15:48;20.90;85.40
2783;DHT22;1399;47.072;15.452;2023-07-29T05:18:14;20.90;85.20
2783;DHT22;1399;47.072;15.452;2023-07-29T05:20:40;20.90;85.00
2783;DHT22;1399;47.072;15.452;2023-07-29T05:23:06;20.90;84.80
2783;DHT22;1399;47.072;15.452;2023-07-29T05:25:32;20.90;84.80
2783;DHT22;1399;47.072;15.452;2023-07-29T05:28:00;21.00;84.70
2783;DHT22;1399;47.072;15.452;2023-07-29T05:30:26;20.90;84.60
2783;DHT22;1399;47.072;15.452;2023-07-29T05:32:57;20.90;84.60
2783;DHT22;1399;47.072;15.452;2023-07-29T05:35:23;20.90;84.60
2783;DHT22;1399;47.072;15.452;2023-07-29T05:37:49;20.90;84.60
2783;DHT22;1399;47.072;15.452;2023-07-29T05:40:15;20.90;84.70
2783;DHT22;1399;47.072;15.452;2023-07-29T05:42:41;20.90;84.70
2783;DHT22;1399;47.072;15.452;2023-07-29T05:45:07;20.90;84.70
2783;DHT22;1399;47.072;15.452;2023-07-29T05:47:33;20.90;84.70
2783;DHT22;1399;47.072;15.452;2023-07-29T05:49:59;20.90;84.70
2783;DHT22;1399;47.072;15.452;2023-07-29T05:52:28;20.90;84.60
2783;DHT22;1399;47.072;15.452;2023-07-29T05:54:54;20.90;84.60
2783;DHT22;1399;47.072;15.452;2023-07-29T05:57:19;20.90;84.60
2783;DHT22;1399;47.072;15.452;2023-07-29T05:59:45;20.90;84.60
2783;DHT22;1399;47.072;15.452;2023-07-29T06:02:11;20.90;84.50
2783;DHT22;1399;47.072;15.452;2023-07-29T06:04:36;20.90;84.50
2783;DHT22;1399;47.072;15.452;2023-07-29T06:07:02;20.80;84.40
2783;DHT22;1399;47.072;15.452;2023-07-29T06:09:28;20.90;84.50
2783;DHT22;1399;47.072;15.452;2023-07-29T06:11:54;20.90;84.50
2783;DHT22;1399;47.072;15.452;2023-07-29T06:14:19;20.90;84.50
2783;DHT22;1399;47.072;15.452;2023-07-29T06:16:45;20.90;84.40
2783;DHT22;1399;47.072;15.452;2023-07-29T06:19:11;20.90;84.30
2783;DHT22;1399;47.072;15.452;2023-07-29T06:21:36;20.90;84.20
2783;DHT22;1399;47.072;15.452;2023-07-29T06:24:02;21.00;84.00
2783;DHT22;1399;47.072;15.452;2023-07-29T06:26:28;21.00;83.70
2783;DHT22;1399;47.072;15.452;2023-07-29T06:28:54;21.10;83.50
2783;DHT22;1399;47.072;15.452;2023-07-29T06:31:20;21.20;83.40
2783;DHT22;1399;47.072;15.452;2023-07-29T06:33:46;21.20;83.00
2783;DHT22;1399;47.072;15.452;2023-07-29T06:36:11;21.30;82.80
2783;DHT22;1399;47.072;15.452;2023-07-29T06:38:37;21.40;82.50
2783;DHT22;1399;47.072;15.452;2023-07-29T06:41:04;21.70;82.30
2783;DHT22;1399;47.072;15.452;2023-07-29T06:43:30;22.00;81.10
2783;DHT22;1399;47.072;15.452;2023-07-29T06:45:56;22.20;80.00
2783;DHT22;1399;47.072;15.452;2023-07-29T06:48:22;22.40;79.40
2783;DHT22;1399;47.072;15.452;2023-07-29T06:50:49;22.40;78.80
2783;DHT22;1399;47.072;15.452;2023-07-29T06:53:16;22.50;78.50
2783;DHT22;1399;47.072;15.452;2023-07-29T06:55:43;22.50;78.20
2783;DHT22;1399;47.072;15.452;2023-07-29T06:58:09;22.50;78.10
2783;DHT22;1399;47.072;15.452;2023-07-29T07:00:35;22.50;78.10
2783;DHT22;1399;47.072;15.452;2023-07-29T07:03:00;22.60;78.00
2783;DHT22;1399;47.072;15.452;2023-07-29T07:05:26;23.10;76.50
2783;DHT22;1399;47.072;15.452;2023-07-29T07:07:52;23.60;73.80
2783;DHT22;1399;47.072;15.452;2023-07-29T07:10:18;23.90;73.00
2783;DHT22;1399;47.072;15.452;2023-07-29T07:12:43;23.90;71.50
2783;DHT22;1399;47.072;15.452;2023-07-29T07:15:09;23.90;71.70
2783;DHT22;1399;47.072;15.452;2023-07-29T07:17:35;23.80;71.90
2783;DHT22;1399;47.072;15.452;2023-07-29T07:20:01;23.70;72.10
2783;DHT22;1399;47.072;15.452;2023-07-29T07:22:26;23.70;72.10
2783;DHT22;1399;47.072;15.452;2023-07-29T07:24:52;23.80;71.90
2783;DHT22;1399;47.072;15.452;2023-07-29T07:27:18;23.90;71.30
2783;DHT22;1399;47.072;15.452;2023-07-29T07:29:44;24.10;70.90
2783;DHT22;1399;47.072;15.452;2023-07-29T07:32:09;24.10;70.40
2783;DHT22;1399;47.072;15.452;2023-07-29T07:34:35;24.20;70.30
2783;DHT22;1399;47.072;15.452;2023-07-29T07:37:01;24.10;70.20
2783;DHT22;1399;47.072;15.452;2023-07-29T07:39:26;24.10;70.50
2783;DHT22;1399;47.072;15.452;2023-07-29T07:41:52;24.00;70.70
2783;DHT22;1399;47.072;15.452;2023-07-29T07:44:18;23.90;71.00
2783;DHT22;1399;47.072;15.452;2023-07-29T07:46:45;23.90;71.40
2783;DHT22;1399;47.072;15.452;2023-07-29T07:49:11;23.80;71.70
2783;DHT22;1399;47.072;15.452;2023-07-29T07:51:38;23.80;72.00
2783;DHT22;1399;47.072;15.452;2023-07-29T07:54:04;23.70;72.20
2783;DHT22;1399;47.072;15.452;2023-07-29T07:56:30;23.60;72.40
2783;DHT22;1399;47.072;15.452;2023-07-29T07:58:56;23.60;72.50
2783;DHT22;1399;47.072;15.452;2023-07-29T08:01:21;23.60;72.70
2783;DHT22;1399;47.072;15.452;2023-07-29T08:03:47;23.60;72.80
2783;DHT22;1399;47.072;15.452;2023-07-29T08:06:13;23.60;72.90
2783;DHT22;1399;47.072;15.452;2023-07-29T08:08:39;23.60;72.90
2783;DHT22;1399;47.072;15.452;2023-07-29T08:11:04;23.60;73.00
2783;DHT22;1399;47.072;15.452;2023-07-29T08:13:30;23.60;73.00
2783;DHT22;1399;47.072;15.452;2023-07-29T08:15:56;23.60;73.00
2783;DHT22;1399;47.072;15.452;2023-07-29T08:18:22;23.60;73.10
2783;DHT22;1399;47.072;15.452;2023-07-29T08:20:55;23.50;73.00
2783;DHT22;1399;47.072;15.452;2023-07-29T08:23:26;23.50;73.10
2783;DHT22;1399;47.072;15.452;2023-07-29T08:25:53;23.50;73.20
2783;DHT22;1399;47.072;15.452;2023-07-29T08:28:24;23.50;73.10
2783;DHT22;1399;47.072;15.452;2023-07-29T08:30:50;23.50;73.10
2783;DHT22;1399;47.072;15.452;2023-07-29T08:33:16;23.50;73.20
2783;DHT22;1399;47.072;15.452;2023-07-29T08:35:41;23.50;73.20
2783;DHT22;1399;47.072;15.452;2023-07-29T08:38:07;23.50;73.20
2783;DHT22;1399;47.072;15.452;2023-07-29T08:40:34;23.50;73.30
2783;DHT22;1399;47.072;15.452;2023-07-29T08:43:06;23.50;73.20
2783;DHT22;1399;47.072;15.452;2023-07-29T08:45:35;23.50;73.00
2783;DHT22;1399;47.072;15.452;2023-07-29T08:48:04;23.50;73.10
2783;DHT22;1399;47.072;15.452;2023-07-29T08:50:32;23.50;73.00
2783;DHT22;1399;47.072;15.452;2023-07-29T08:52:59;23.50;72.90
2783;DHT22;1399;47.072;15.452;2023-07-29T08:55:26;23.50;72.90
2783;DHT22;1399;47.072;15.452;2023-07-29T08:57:52;23.50;72.80
2783;DHT22;1399;47.072;15.452;2023-07-29T09:00:19;23.60;72.90
2783;DHT22;1399;47.072;15.452;2023-07-29T09:02:45;23.60;72.90
2783;DHT22;1399;47.072;15.452;2023-07-29T09:05:11;23.60;72.90
2783;DHT22;1399;47.072;15.452;2023-07-29T09:07:37;23.60;72.80
2783;DHT22;1399;47.072;15.452;2023-07-29T09:10:04;23.50;72.70
2783;DHT22;1399;47.072;15.452;2023-07-29T09:12:29;23.60;72.60
2783;DHT22;1399;47.072;15.452;2023-07-29T09:14:55;23.60;72.40
2783;DHT22;1399;47.072;15.452;2023-07-29T09:17:21;23.60;72.40
2783;DHT22;1399;47.072;15.452;2023-07-29T09:19:48;23.50;72.30
2783;DHT22;1399;47.072;15.452;2023-07-29T09:22:21;23.60;72.50
2783;DHT22;1399;47.072;15.452;2023-07-29T09:24:47;23.60;72.50
2783;DHT22;1399;47.072;15.452;2023-07-29T09:27:28;23.60;72.40
2783;DHT22;1399;47.072;15.452;2023-07-29T09:29:57;23.60;72.30
2783;DHT22;1399;47.072;15.452;2023-07-29T09:32:25;23.60;72.30
2783;DHT22;1399;47.072;15.452;2023-07-29T09:34:51;23.60;72.30
2783;DHT22;1399;47.072;15.452;2023-07-29T09:37:18;23.60;72.10
2783;DHT22;1399;47.072;15.452;2023-07-29T09:39:47;23.60;72.20
2783;DHT22;1399;47.072;15.452;2023-07-29T09:42:18;23.60;72.20
2783;DHT22;1399;47.072;15.452;2023-07-29T09:44:44;23.60;72.10
2783;DHT22;1399;47.072;15.452;2023-07-29T09:47:14;23.60;72.10
2783;DHT22;1399;47.072;15.452;2023-07-29T09:49:43;23.70;72.30
2783;DHT22;1399;47.072;15.452;2023-07-29T09:52:09;23.70;72.30
2783;DHT22;1399;47.072;15.452;2023-07-29T09:54:36;23.70;71.90
2783;DHT22;1399;47.072;15.452;2023-07-29T09:57:02;23.70;71.80
2783;DHT22;1399;47.072;15.452;2023-07-29T09:59:28;23.70;71.80
2783;DHT22;1399;47.072;15.452;2023-07-29T10:01:58;23.70;71.80
2783;DHT22;1399;47.072;15.452;2023-07-29T10:04:25;23.70;71.70
2783;DHT22;1399;47.072;15.452;2023-07-29T10:06:51;23.70;71.50
2783;DHT22;1399;47.072;15.452;2023-07-29T10:09:20;23.70;71.50
2783;DHT22;1399;47.072;15.452;2023-07-29T10:11:47;23.80;71.40
2783;DHT22;1399;47.072;15.452;2023-07-29T10:14:16;23.80;71.30
2783;DHT22;1399;47.072;15.452;2023-07-29T10:16:44;23.80;71.20
2783;DHT22;1399;47.072;15.452;2023-07-29T10:19:11;23.80;71.10
2783;DHT22;1399;47.072;15.452;2023-07-29T10:21:41;23.80;71.20
2783;DHT22;1399;47.072;15.452;2023-07-29T10:24:15;23.80;71.40
2783;DHT22;1399;47.072;15.452;2023-07-29T10:26:46;23.90;71.10
2783;DHT22;1399;47.072;15.452;2023-07-29T10:29:13;23.90;70.90
2783;DHT22;1399;47.072;15.452;2023-07-29T10:31:43;23.90;71.30
2783;DHT22;1399;47.072;15.452;2023-07-29T10:34:09;23.90;71.00
2783;DHT22;1399;47.072;15.452;2023-07-29T10:36:36;23.90;70.80
2783;DHT22;1399;47.072;15.452;2023-07-29T10:39:02;23.90;70.50
2783;DHT22;1399;47.072;15.452;2023-07-29T10:41:57;24.00;70.80
2783;DHT22;1399;47.072;15.452;2023-07-29T10:47:26;24.00;70.50
2783;DHT22;1399;47.072;15.452;2023-07-29T10:49:57;24.00;70.60
2783;DHT22;1399;47.072;15.452;2023-07-29T10:55:01;24.00;70.30
2783;DHT22;1399;47.072;15.452;2023-07-29T10:57:35;24.10;70.20
2783;DHT22;1399;47.072;15.452;2023-07-29T11:00:02;24.10;70.20
2783;DHT22;1399;47.072;15.452;2023-07-29T11:02:36;24.10;70.10
2783;DHT22;1399;47.072;15.452;2023-07-29T11:05:07;24.10;70.80
2783;DHT22;1399;47.072;15.452;2023-07-29T11:07:52;24.20;70.50
2783;DHT22;1399;47.072;15.452;2023-07-29T11:10:18;24.20;70.40
2783;DHT22;1399;47.072;15.452;2023-07-29T11:15:19;24.20;70.30
2783;DHT22;1399;47.072;15.452;2023-07-29T11:20:13;24.40;69.90
2783;DHT22;1399;47.072;15.452;2023-07-29T11:22:39;24.40;69.80
2783;DHT22;1399;47.072;15.452;2023-07-29T11:25:07;24.40;69.10
2783;DHT22;1399;47.072;15.452;2023-07-29T11:27:33;24.40;68.90
2783;DHT22;1399;47.072;15.452;2023-07-29T11:30:05;24.50;69.30
2783;DHT22;1399;47.072;15.452;2023-07-29T11:32:31;24.50;68.90
2783;DHT22;1399;47.072;15.452;2023-07-29T11:35:04;24.50;68.80
2783;DHT22;1399;47.072;15.452;2023-07-29T11:37:30;24.60;69.10
2783;DHT22;1399;47.072;15.452;2023-07-29T11:39:56;24.60;69.40
2783;DHT22;1399;47.072;15.452;2023-07-29T11:42:21;24.60;69.00
2783;DHT22;1399;47.072;15.452;2023-07-29T11:44:47;24.60;68.60
2783;DHT22;1399;47.072;15.452;2023-07-29T11:47:13;24.60;68.20
2783;DHT22;1399;47.072;15.452;2023-07-29T11:49:40;24.70;68.40
2783;DHT22;1399;47.072;15.452;2023-07-29T11:52:10;24.70;68.30
2783;DHT22;1399;47.072;15.452;2023-07-29T11:54:36;24.70;68.50
2783;DHT22;1399;47.072;15.452;2023-07-29T11:57:07;24.70;68.60
2783;DHT22;1399;47.072;15.452;2023-07-29T11:59:37;24.70;68.80
2783;DHT22;1399;47.072;15.452;2023-07-29T12:02:11;24.70;68.30
2783;DHT22;1399;47.072;15.452;2023-07-29T12:04:38;24.70;68.00
2783;DHT22;1399;47.072;15.452;2023-07-29T12:07:05;24.60;67.80
2783;DHT22;1399;47.072;15.452;2023-07-29T12:09:31;24.60;68.40
2783;DHT22;1399;47.072;15.452;2023-07-29T12:11:57;24.60;68.20
2783;DHT22;1399;47.072;15.452;2023-07-29T12:14:26;24.60;68.00
2783;DHT22;1399;47.072;15.452;2023-07-29T12:16:52;24.60;67.70
2783;DHT22;1399;47.072;15.452;2023-07-29T12:19:19;24.70;68.00
2783;DHT22;1399;47.072;15.452;2023-07-29T12:21:47;24.70;68.40
2783;DHT22;1399;47.072;15.452;2023-07-29T12:24:13;24.70;68.20
2783;DHT22;1399;47.072;15.452;2023-07-29T12:26:40;24.70;67.90
2783;DHT22;1399;47.072;15.452;2023-07-29T12:29:14;24.80;67.90
2783;DHT22;1399;47.072;15.452;2023-07-29T12:31:40;24.80;67.70
2783;DHT22;1399;47.072;15.452;2023-07-29T12:34:06;24.80;67.60
2783;DHT22;1399;47.072;15.452;2023-07-29T12:36:47;24.80;67.40
2783;DHT22;1399;47.072;15.452;2023-07-29T12:41:42;24.90;67.30
2783;DHT22;1399;47.072;15.452;2023-07-29T12:44:08;25.00;67.10
2783;DHT22;1399;47.072;15.452;2023-07-29T12:46:34;25.10;66.70
2783;DHT22;1399;47.072;15.452;2023-07-29T12:48:59;25.10;66.40
2783;DHT22;1399;47.072;15.452;2023-07-29T12:51:26;25.20;66.70
2783;DHT22;1399;47.072;15.452;2023-07-29T12:53:53;25.20;66.50
2783;DHT22;1399;47.072;15.452;2023-07-29T12:56:19;25.20;66.50
2783;DHT22;1399;47.072;15.452;2023-07-29T12:58:45;25.20;66.50
2783;DHT22;1399;47.072;15.452;2023-07-29T13:01:11;25.20;66.10
2783;DHT22;1399;47.072;15.452;2023-07-29T13:03:42;25.20;65.90
2783;DHT22;1399;47.072;15.452;2023-07-29T13:06:08;25.30;66.20
2783;DHT22;1399;47.072;15.452;2023-07-29T13:08:33;25.30;66.00
2783;DHT22;1399;47.072;15.452;2023-07-29T13:10:59;25.30;66.00
2783;DHT22;1399;47.072;15.452;2023-07-29T13:13:25;25.30;66.00
2783;DHT22;1399;47.072;15.452;2023-07-29T13:15:50;25.20;65.80
2783;DHT22;1399;47.072;15.452;2023-07-29T13:18:16;25.20;66.00
2783;DHT22;1399;47.072;15.452;2023-07-29T13:20:42;25.20;66.20
2783;DHT22;1399;47.072;15.452;2023-07-29T13:23:07;25.20;66.30
2783;DHT22;1399;47.072;15.452;2023-07-29T13:25:33;25.20;66.30
2783;DHT22;1399;47.072;15.452;2023-07-29T13:27:59;25.20;66.40
2783;DHT22;1399;47.072;15.452;2023-07-29T13:30:24;25.20;66.40
2783;DHT22;1399;47.072;15.452;2023-07-29T13:32:50;25.20;66.30
2783;DHT22;1399;47.072;15.452;2023-07-29T13:35:16;25.20;66.40
2783;DHT22;1399;47.072;15.452;2023-07-29T13:37:41;25.20;66.50
2783;DHT22;1399;47.072;15.452;2023-07-29T13:40:07;25.20;66.80
2783;DHT22;1399;47.072;15.452;2023-07-29T13:42:33;25.20;67.00
2783;DHT22;1399;47.072;15.452;2023-07-29T13:44:59;25.20;67.00
2783;DHT22;1399;47.072;15.452;2023-07-29T13:47:24;25.30;67.90
2783;DHT22;1399;47.072;15.452;2023-07-29T13:49:50;25.30;66.90
2783;DHT22;1399;47.072;15.452;2023-07-29T13:52:16;25.40;66.90
2783;DHT22;1399;47.072;15.452;2023-07-29T13:54:41;25.40;66.90
2783;DHT22;1399;47.072;15.452;2023-07-29T13:57:07;25.40;66.90
2783;DHT22;1399;47.072;15.452;2023-07-29T13:59:33;25.40;66.90
2783;DHT22;1399;47.072;15.452;2023-07-29T14:01:58;25.40;66.90
2783;DHT22;1399;47.072;15.452;2023-07-29T14:04:24;25.40;66.80
2783;DHT22;1399;47.072;15.452;2023-07-29T14:06:50;25.40;66.90
2783;DHT22;1399;47.072;15.452;2023-07-29T14:09:15;25.40;66.90
2783;DHT22;1399;47.072;15.452;2023-07-29T14:11:41;25.30;66.90
2783;DHT22;1399;47.072;15.452;2023-07-29T14:14:07;25.30;66.90
2783;DHT22;1399;47.072;15.452;2023-07-29T14:16:33;25.30;66.90
2783;DHT22;1399;47.072;15.452;2023-07-29T14:18:59;25.30;67.10
2783;DHT22;1399;47.072;15.452;2023-07-29T14:21:24;25.30;66.90
2783;DHT22;1399;47.072;15.452;2023-07-29T14:23:50;25.30;66.90
2783;DHT22;1399;47.072;15.452;2023-07-29T14:26:16;25.30;66.90
2783;DHT22;1399;47.072;15.452;2023-07-29T14:28:41;25.30;66.90
2783;DHT22;1399;47.072;15.452;2023-07-29T14:31:07;25.30;66.80
2783;DHT22;1399;47.072;15.452;2023-07-29T14:33:33;25.30;66.80
2783;DHT22;1399;47.072;15.452;2023-07-29T14:35:58;25.30;66.90
2783;DHT22;1399;47.072;15.452;2023-07-29T14:38:24;25.30;66.90
2783;DHT22;1399;47.072;15.452;2023-07-29T14:40:51;25.30;66.90
2783;DHT22;1399;47.072;15.452;2023-07-29T14:43:20;25.30;66.90
2783;DHT22;1399;47.072;15.452;2023-07-29T14:45:45;25.30;66.90
2783;DHT22;1399;47.072;15.452;2023-07-29T14:48:11;25.30;66.70
2783;DHT22;1399;47.072;15.452;2023-07-29T14:50:37;25.40;66.70
2783;DHT22;1399;47.072;15.452;2023-07-29T14:53:02;25.50;66.60
2783;DHT22;1399;47.072;15.452;2023-07-29T14:55:28;25.50;66.60
2783;DHT22;1399;47.072;15.452;2023-07-29T14:57:54;25.50;66.50
2783;DHT22;1399;47.072;15.452;2023-07-29T15:00:19;25.50;66.50
2783;DHT22;1399;47.072;15.452;2023-07-29T15:02:45;25.50;66.60
2783;DHT22;1399;47.072;15.452;2023-07-29T15:05:11;25.50;66.70
2783;DHT22;1399;47.072;15.452;2023-07-29T15:07:36;25.50;66.80
2783;DHT22;1399;47.072;15.452;2023-07-29T15:10:02;25.40;66.80
2783;DHT22;1399;47.072;15.452;2023-07-29T15:12:28;25.40;66.90
2783;DHT22;1399;47.072;15.452;2023-07-29T15:14:54;25.40;66.90
2783;DHT22;1399;47.072;15.452;2023-07-29T15:17:20;25.40;66.90
2783;DHT22;1399;47.072;15.452;2023-07-29T15:19:45;25.40;66.90
2783;DHT22;1399;47.072;15.452;2023-07-29T15:22:15;25.40;67.00
2783;DHT22;1399;47.072;15.452;2023-07-29T15:24:41;25.40;67.00
2783;DHT22;1399;47.072;15.452;2023-07-29T15:27:09;25.40;67.20
2783;DHT22;1399;47.072;15.452;2023-07-29T15:29:35;25.30;67.20
2783;DHT22;1399;47.072;15.452;2023-07-29T15:32:01;25.30;67.30
2783;DHT22;1399;47.072;15.452;2023-07-29T15:34:26;25.30;67.30
2783;DHT22;1399;47.072;15.452;2023-07-29T15:36:57;25.30;67.40
2783;DHT22;1399;47.072;15.452;2023-07-29T15:39:23;25.30;67.50
2783;DHT22;1399;47.072;15.452;2023-07-29T15:41:48;25.30;67.60
2783;DHT22;1399;47.072;15.452;2023-07-29T15:44:14;25.20;67.60
2783;DHT22;1399;47.072;15.452;2023-07-29T15:46:40;25.20;67.60
2783;DHT22;1399;47.072;15.452;2023-07-29T15:49:06;25.20;67.80
2783;DHT22;1399;47.072;15.452;2023-07-29T15:51:31;25.20;67.80
2783;DHT22;1399;47.072;15.452;2023-07-29T15:53:57;25.20;67.90
2783;DHT22;1399;47.072;15.452;2023-07-29T15:56:23;25.20;68.00